createdAt,value
2022-12-14T00:01:29.098Z,46.33
2022-12-14T00:03:56.329Z,46.15
2022-12-14T00:06:26.664Z,43.95
2022-12-14T00:08:56.522Z,38.00
2022-12-14T00:11:23.520Z,47.67
2022-12-14T00:13:57.338Z,44.08
2022-12-14T00:16:25.733Z,50.45
2022-12-14T00:18:53.742Z,49.47
2022-12-14T00:21:24.153Z,43.35
2022-12-14T00:23:51.743Z,41.17
2022-12-14T00:26:24.688Z,42.60
2022-12-14T00:28:53.202Z,46.92
2022-12-14T00:31:20.733Z,41.65
2022-12-14T00:33:47.140Z,43.33
2022-12-14T00:36:16.794Z,41.42
2022-12-14T00:38:43.249Z,50.70
2022-12-14T00:41:10.879Z,47.90
2022-12-14T00:43:38.014Z,43.33
2022-12-14T00:46:04.692Z,40.90
2022-12-14T00:48:31.927Z,46.45
2022-12-14T00:50:58.662Z,48.45
2022-12-14T00:53:25.809Z,49.17
2022-12-14T00:55:52.610Z,44.15
2022-12-14T00:58:21.690Z,53.30
2022-12-14T01:00:57.705Z,47.65
2022-12-14T01:03:24.299Z,47.78
2022-12-14T01:05:51.013Z,46.72
2022-12-14T01:08:17.415Z,46.80
2022-12-14T01:10:43.834Z,56.85
2022-12-14T01:13:14.117Z,47.95
2022-12-14T01:15:40.609Z,50.92
2022-12-14T01:18:07.029Z,49.30
2022-12-14T01:20:33.438Z,50.00
2022-12-14T01:22:59.830Z,53.90
2022-12-14T01:25:26.444Z,54.33
2022-12-14T01:27:52.833Z,56.17
2022-12-14T01:30:19.559Z,56.22
2022-12-14T01:32:46.746Z,61.33
2022-12-14T01:35:13.228Z,57.97
2022-12-14T01:37:39.609Z,51.38
2022-12-14T01:40:06.466Z,52.80
2022-12-14T01:42:35.896Z,52.10
2022-12-14T01:45:03.198Z,53.30
2022-12-14T01:47:43.216Z,56.05
2022-12-14T01:50:53.998Z,49.55
2022-12-14T01:53:24.517Z,54.28
2022-12-14T01:55:54.365Z,53.33
2022-12-14T01:58:26.066Z,60.53
2022-12-14T02:00:54.996Z,49.55
2022-12-14T02:03:37.955Z,54.80
2022-12-14T02:06:09.870Z,48.53
2022-12-14T02:08:41.815Z,59.70
2022-12-14T02:11:08.217Z,51.35
2022-12-14T02:13:38.961Z,57.25
2022-12-14T02:16:05.730Z,48.08
2022-12-14T02:18:33.002Z,54.78
2022-12-14T02:21:17.985Z,56.65
2022-12-14T02:24:30.236Z,56.47
2022-12-14T02:27:30.632Z,56.65
2022-12-14T02:30:06.624Z,46.13
2022-12-14T02:32:48.087Z,51.63
2022-12-14T02:35:43.755Z,58.42
2022-12-14T02:38:22.235Z,53.08
2022-12-14T02:41:06.659Z,46.03
2022-12-14T02:43:50.828Z,54.55
2022-12-14T02:46:36.291Z,48.83
2022-12-14T02:49:34.643Z,54.28
2022-12-14T02:52:10.362Z,47.97
2022-12-14T02:55:02.980Z,55.33
2022-12-14T02:57:34.472Z,48.42
2022-12-14T03:00:04.043Z,53.65
2022-12-14T03:02:33.475Z,50.63
2022-12-14T03:04:59.952Z,50.28
2022-12-14T03:07:40.299Z,48.67
2022-12-14T03:10:21.218Z,52.60
2022-12-14T03:12:53.845Z,50.10
2022-12-14T03:15:21.773Z,50.30
2022-12-14T03:17:52.785Z,52.83
2022-12-14T03:20:25.610Z,46.63
2022-12-14T03:23:00.717Z,50.58
2022-12-14T03:25:34.588Z,53.88
2022-12-14T03:28:12.327Z,48.45
2022-12-14T03:30:59.966Z,46.25
2022-12-14T03:33:29.520Z,54.05
2022-12-14T03:36:08.986Z,52.10
2022-12-14T03:38:44.204Z,44.58
2022-12-14T03:41:28.664Z,53.10
2022-12-14T03:44:15.905Z,50.53
2022-12-14T03:46:57.742Z,50.88
2022-12-14T03:49:50.895Z,45.17
2022-12-14T03:52:23.107Z,44.58
2022-12-14T03:55:05.524Z,53.17
2022-12-14T03:57:55.450Z,54.85
2022-12-14T04:00:24.736Z,48.75
2022-12-14T04:03:31.112Z,46.85
2022-12-14T04:06:07.371Z,51.95
2022-12-14T04:08:57.289Z,53.13
2022-12-14T04:11:46.548Z,48.38
2022-12-14T04:14:39.958Z,52.38
2022-12-14T04:17:35.817Z,44.10
2022-12-14T04:20:10.706Z,50.00
2022-12-14T04:22:47.113Z,47.25
2022-12-14T04:25:38.007Z,52.60
2022-12-14T04:28:31.110Z,46.15
2022-12-14T04:31:03.074Z,52.08
2022-12-14T04:33:47.353Z,47.05
2022-12-14T04:36:39.990Z,48.58
2022-12-14T04:39:11.571Z,48.33
2022-12-14T04:41:42.778Z,48.42
2022-12-14T04:44:22.495Z,50.10
2022-12-14T04:46:50.730Z,49.28
2022-12-14T04:49:23.614Z,48.92
2022-12-14T04:52:05.227Z,48.58
2022-12-14T04:54:37.481Z,52.17
2022-12-14T04:57:19.323Z,49.17
2022-12-14T04:59:47.311Z,49.15
2022-12-14T05:02:34.115Z,53.25
2022-12-14T05:05:07.915Z,54.70
2022-12-14T05:07:49.214Z,44.60
2022-12-14T05:10:51.966Z,52.78
2022-12-14T05:13:26.271Z,50.42
2022-12-14T05:15:55.821Z,51.97
2022-12-14T05:18:23.034Z,49.15
2022-12-14T05:20:50.088Z,55.28
2022-12-14T05:23:17.202Z,50.45
2022-12-14T05:25:43.663Z,47.00
2022-12-14T05:28:11.219Z,51.33
2022-12-14T05:30:37.756Z,57.83
2022-12-14T05:33:04.552Z,53.90
2022-12-14T05:35:31.045Z,52.40
2022-12-14T05:37:57.445Z,50.72
2022-12-14T05:40:23.832Z,47.67
2022-12-14T05:42:55.447Z,51.67
2022-12-14T05:45:22.329Z,55.40
2022-12-14T05:47:48.782Z,49.95
2022-12-14T05:50:15.182Z,49.47
2022-12-14T05:52:41.573Z,47.78
2022-12-14T05:55:08.433Z,52.35
2022-12-14T05:57:34.817Z,51.88
2022-12-14T06:00:01.198Z,52.55
2022-12-14T06:02:30.821Z,55.35
2022-12-14T06:04:57.298Z,45.58
2022-12-14T06:07:27.689Z,51.65
2022-12-14T06:09:54.733Z,45.30
2022-12-14T06:12:21.180Z,50.22
2022-12-14T06:14:47.618Z,47.90
2022-12-14T06:17:14.021Z,50.47
2022-12-14T06:19:40.405Z,50.50
2022-12-14T06:22:06.825Z,50.03
2022-12-14T06:24:33.211Z,48.28
2022-12-14T06:26:59.602Z,50.58
2022-12-14T06:29:26.197Z,48.13
2022-12-14T06:31:52.652Z,59.67
2022-12-14T06:34:22.204Z,50.90
2022-12-14T06:36:51.317Z,52.70
2022-12-14T06:39:17.698Z,53.35
2022-12-14T06:41:51.774Z,47.72
2022-12-14T06:44:27.457Z,50.15
2022-12-14T06:46:54.124Z,48.92
2022-12-14T06:49:20.569Z,51.45
2022-12-14T06:51:47.004Z,52.67
2022-12-14T06:54:15.044Z,49.78
2022-12-14T06:56:42.845Z,49.80
2022-12-14T06:59:09.679Z,46.80
2022-12-14T07:01:37.415Z,48.83
2022-12-14T07:04:04.908Z,53.95
2022-12-14T07:06:39.802Z,48.80
2022-12-14T07:09:10.898Z,48.60
2022-12-14T07:11:37.301Z,46.50
2022-12-14T07:14:06.134Z,51.25
2022-12-14T07:16:34.234Z,54.63
2022-12-14T07:19:00.929Z,48.05
2022-12-14T07:21:27.447Z,54.40
2022-12-14T07:23:53.929Z,48.85
2022-12-14T07:26:26.453Z,48.72
2022-12-14T07:28:53.761Z,46.35
2022-12-14T07:31:26.724Z,44.88
2022-12-14T07:33:58.677Z,43.42
2022-12-14T07:36:30.289Z,50.97
2022-12-14T07:38:56.993Z,56.25
2022-12-14T07:41:26.326Z,50.85
2022-12-14T07:43:54.761Z,50.15
2022-12-14T07:46:24.105Z,49.10
2022-12-14T07:48:55.309Z,45.78
2022-12-14T07:51:30.084Z,47.15
2022-12-14T07:53:56.816Z,43.47
2022-12-14T07:56:25.397Z,49.58
2022-12-14T07:58:56.930Z,51.38
2022-12-14T08:01:33.330Z,48.47
2022-12-14T08:04:05.202Z,48.33
2022-12-14T08:06:32.291Z,52.45
2022-12-14T08:08:59.002Z,47.90
2022-12-14T08:11:25.696Z,43.47
2022-12-14T08:13:56.691Z,52.67
2022-12-14T08:18:52.496Z,47.50
2022-12-14T08:21:21.500Z,44.03
2022-12-14T08:23:48.885Z,47.58
2022-12-14T08:26:15.881Z,47.85
2022-12-14T08:28:42.270Z,45.30
2022-12-14T08:31:20.342Z,46.22
2022-12-14T08:33:47.609Z,41.05
2022-12-14T08:36:25.457Z,50.65
2022-12-14T08:38:57.034Z,49.55
2022-12-14T08:41:24.564Z,46.25
2022-12-14T08:43:56.699Z,48.75
2022-12-14T08:46:24.191Z,47.80
2022-12-14T08:48:52.448Z,46.35
2022-12-14T08:51:19.707Z,47.83
2022-12-14T08:53:52.002Z,46.35
2022-12-14T08:56:21.566Z,44.08
2022-12-14T08:58:51.161Z,44.53
2022-12-14T09:01:29.996Z,47.35
2022-12-14T09:04:05.949Z,49.90
2022-12-14T09:06:37.479Z,42.95
2022-12-14T09:09:13.601Z,50.33
2022-12-14T09:11:42.545Z,50.97
2022-12-14T09:14:08.942Z,46.42
2022-12-14T09:16:41.406Z,48.13
2022-12-14T09:19:07.837Z,42.10
2022-12-14T09:21:34.741Z,47.05
2022-12-14T09:24:01.606Z,52.10
2022-12-14T09:26:28.159Z,44.80
2022-12-14T09:28:56.512Z,49.85
2022-12-14T09:31:24.734Z,43.28
2022-12-14T09:33:51.603Z,48.67
2022-12-14T09:36:23.957Z,49.78
2022-12-14T09:38:52.422Z,48.35
2022-12-14T09:41:36.996Z,48.25
2022-12-14T09:44:31.241Z,40.38
2022-12-14T09:47:21.002Z,43.40
2022-12-14T09:49:53.099Z,46.50
2022-12-14T09:52:48.831Z,44.58
2022-12-14T09:55:31.851Z,42.20
2022-12-14T09:58:03.517Z,47.55
2022-12-14T10:00:37.593Z,45.78
2022-12-14T10:03:19.264Z,54.72
2022-12-14T10:06:19.092Z,41.67
2022-12-14T10:08:54.936Z,42.42
2022-12-14T10:11:40.504Z,44.40
2022-12-14T10:14:29.859Z,48.17
2022-12-14T10:17:09.458Z,45.22
2022-12-14T10:19:51.462Z,45.55
2022-12-14T10:22:38.419Z,47.08
2022-12-14T10:25:13.962Z,40.78
2022-12-14T10:30:37.883Z,41.20
2022-12-14T10:33:16.841Z,45.90
2022-12-14T10:35:50.932Z,43.00
2022-12-14T10:38:26.351Z,47.35
2022-12-14T10:41:31.430Z,44.55
2022-12-14T10:44:23.182Z,44.90
2022-12-14T10:47:11.760Z,43.03
2022-12-14T10:50:03.027Z,42.95
2022-12-14T10:52:36.998Z,47.40
2022-12-14T10:55:12.177Z,39.50
2022-12-14T10:57:38.623Z,40.53
2022-12-14T11:00:31.310Z,37.55
2022-12-14T11:02:58.221Z,45.67
2022-12-14T11:05:51.036Z,39.03
2022-12-14T11:08:41.032Z,40.00
2022-12-14T11:11:24.743Z,39.63
2022-12-14T11:13:54.378Z,41.95
2022-12-14T11:16:37.131Z,44.80
2022-12-14T11:19:06.011Z,38.20
2022-12-14T11:21:35.823Z,39.80
2022-12-14T11:24:22.245Z,41.90
2022-12-14T11:26:58.977Z,38.42
2022-12-14T11:29:34.688Z,40.88
2022-12-14T11:32:01.700Z,38.25
2022-12-14T11:34:37.674Z,36.28
2022-12-14T11:37:12.947Z,42.65
2022-12-14T11:39:42.404Z,40.80
2022-12-14T11:42:17.405Z,35.90
2022-12-14T11:44:45.945Z,42.80
2022-12-14T11:47:30.793Z,41.63
2022-12-14T11:49:57.841Z,41.05
2022-12-14T11:52:42.513Z,37.28
2022-12-14T11:55:26.486Z,38.10
2022-12-14T11:57:59.342Z,36.90
2022-12-14T12:00:30.771Z,44.08
2022-12-14T12:03:01.828Z,44.38
2022-12-14T12:05:32.625Z,38.75
2022-12-14T12:08:02.105Z,43.67
2022-12-14T12:10:49.678Z,38.10
2022-12-14T12:13:35.171Z,38.95
2022-12-14T12:16:05.898Z,35.47
2022-12-14T12:18:45.813Z,41.45
2022-12-14T12:21:18.482Z,37.30
2022-12-14T12:23:58.620Z,35.50
2022-12-14T12:26:32.332Z,22.53
2022-12-14T12:29:36.458Z,41.20
2022-12-14T12:32:23.966Z,38.00
2022-12-14T12:35:11.279Z,39.40
2022-12-14T12:37:56.990Z,38.88
2022-12-14T12:40:32.012Z,42.88
2022-12-14T12:43:12.830Z,41.20
2022-12-14T12:45:46.532Z,39.28
2022-12-14T12:48:28.186Z,42.88
2022-12-14T12:51:00.820Z,38.22
2022-12-14T12:53:33.481Z,40.20
2022-12-14T12:56:14.630Z,40.47
2022-12-14T13:01:24.190Z,42.22
2022-12-14T13:03:55.277Z,37.80
2022-12-14T13:06:35.852Z,38.58
2022-12-14T13:09:17.395Z,42.33
2022-12-14T13:11:45.694Z,34.72
2022-12-14T13:14:39.813Z,36.55
2022-12-14T13:17:14.897Z,38.83
2022-12-14T13:19:50.568Z,38.65
2022-12-14T13:22:24.862Z,40.22
2022-12-14T13:24:58.851Z,41.65
2022-12-14T13:27:42.042Z,34.40
2022-12-14T13:30:43.075Z,38.30
2022-12-14T13:33:33.298Z,37.78
2022-12-14T13:36:28.059Z,41.63
2022-12-14T13:39:18.253Z,36.72
2022-12-14T13:41:56.351Z,33.80
2022-12-14T13:45:01.295Z,34.67
2022-12-14T13:48:03.586Z,34.25
2022-12-14T13:50:36.603Z,34.70
2022-12-14T13:53:27.631Z,38.90
2022-12-14T13:56:00.007Z,35.97
2022-12-14T13:58:44.474Z,44.85
2022-12-14T14:01:35.123Z,33.97
2022-12-14T14:04:10.411Z,36.05
2022-12-14T14:06:50.549Z,33.83
2022-12-14T14:09:26.325Z,38.55
2022-12-14T14:11:57.143Z,36.47
2022-12-14T14:14:33.466Z,45.50
2022-12-14T14:17:08.568Z,39.97
2022-12-14T14:19:39.508Z,35.75
2022-12-14T14:22:25.832Z,39.05
2022-12-14T14:25:00.920Z,39.22
2022-12-14T14:27:37.126Z,37.55
2022-12-14T14:30:26.387Z,41.25
2022-12-14T14:32:54.175Z,33.80
2022-12-14T14:35:37.733Z,38.47
2022-12-14T14:38:23.330Z,37.78
2022-12-14T14:43:49.624Z,42.17
2022-12-14T14:46:22.273Z,35.00
2022-12-14T14:48:54.537Z,37.95
2022-12-14T14:51:28.951Z,37.70
2022-12-14T14:54:56.096Z,36.97
2022-12-14T14:57:35.055Z,39.92
2022-12-14T15:00:05.006Z,41.58
2022-12-14T15:02:39.202Z,34.13
2022-12-14T15:05:33.200Z,41.15
2022-12-14T15:07:55.094Z,40.15
2022-12-14T15:10:29.741Z,39.30
2022-12-14T15:13:03.196Z,44.42
2022-12-14T15:15:37.211Z,36.78
2022-12-14T15:18:30.460Z,38.40
2022-12-14T15:21:07.838Z,42.38
2022-12-14T15:23:45.337Z,40.72
2022-12-14T15:26:26.413Z,40.10
2022-12-14T15:28:58.168Z,44.78
2022-12-14T15:31:33.775Z,45.72
2022-12-14T15:34:01.831Z,45.70
2022-12-14T15:36:32.124Z,45.72
2022-12-14T15:38:58.899Z,40.78
2022-12-14T15:41:28.780Z,40.78
2022-12-14T15:44:00.321Z,43.45
2022-12-14T15:46:40.229Z,38.22
2022-12-14T15:49:10.614Z,35.67
2022-12-14T15:51:43.372Z,39.47
2022-12-14T15:54:20.718Z,35.95
2022-12-14T15:56:51.025Z,37.90
2022-12-14T15:59:32.430Z,42.85
2022-12-14T16:02:29.065Z,42.28
2022-12-14T16:05:01.375Z,40.45
2022-12-14T16:07:39.206Z,40.63
2022-12-14T16:10:22.717Z,37.88
2022-12-14T16:12:52.493Z,38.60
2022-12-14T16:15:22.307Z,36.88
2022-12-14T16:17:53.653Z,39.53
2022-12-14T16:20:30.261Z,37.72
2022-12-14T16:23:01.439Z,38.28
2022-12-14T16:25:30.107Z,38.22
2022-12-14T16:27:56.832Z,35.55
2022-12-14T16:30:33.319Z,40.63
2022-12-14T16:33:05.948Z,42.67
2022-12-14T16:35:35.262Z,40.17
2022-12-14T16:38:16.218Z,43.88
2022-12-14T16:40:48.536Z,40.25
2022-12-14T16:43:30.782Z,44.10
2022-12-14T16:46:00.430Z,46.17
2022-12-14T16:48:28.739Z,47.47
2022-12-14T16:51:32.976Z,41.78
2022-12-14T16:54:23.959Z,44.45
2022-12-14T16:56:58.176Z,50.97
2022-12-14T16:59:55.078Z,48.08
2022-12-14T17:02:30.448Z,47.42
2022-12-14T17:04:59.935Z,55.17
2022-12-14T17:07:29.617Z,53.25
2022-12-14T17:09:56.515Z,48.25
2022-12-14T17:12:24.933Z,51.15
2022-12-14T17:14:52.222Z,53.45
2022-12-14T17:17:26.790Z,54.65
2022-12-14T17:19:55.906Z,55.53
2022-12-14T17:22:26.364Z,54.47
2022-12-14T17:24:53.032Z,61.72
2022-12-14T17:27:26.656Z,59.47
2022-12-14T17:29:57.240Z,71.20
2022-12-14T17:32:27.679Z,60.33
2022-12-14T17:34:54.101Z,52.78
2022-12-14T17:37:23.757Z,68.47
2022-12-14T17:39:50.867Z,74.97
2022-12-14T17:42:20.434Z,63.47
2022-12-14T17:45:05.036Z,67.07
2022-12-14T17:47:31.535Z,63.47
2022-12-14T17:49:57.992Z,69.32
2022-12-14T17:52:28.930Z,68.88
2022-12-14T17:57:23.565Z,68.05
2022-12-14T18:00:10.270Z,56.08
2022-12-14T18:02:37.732Z,58.60
2022-12-14T18:05:04.577Z,56.10
2022-12-14T18:07:30.966Z,54.88
2022-12-14T18:09:57.646Z,53.80
2022-12-14T18:12:25.761Z,50.78
2022-12-14T18:14:52.410Z,49.90
2022-12-14T18:17:18.942Z,49.92
2022-12-14T18:19:45.354Z,53.08
2022-12-14T18:22:14.389Z,52.38
2022-12-14T18:24:40.857Z,65.78
2022-12-14T18:27:07.377Z,65.28
2022-12-14T18:29:33.810Z,56.72
2022-12-14T18:32:00.310Z,53.45
2022-12-14T18:34:26.806Z,55.85
2022-12-14T18:36:53.206Z,59.05
2022-12-14T18:39:19.814Z,53.00
2022-12-14T18:41:46.200Z,52.53
2022-12-14T18:44:12.607Z,52.08
2022-12-14T18:46:39.541Z,49.42
2022-12-14T18:49:06.691Z,48.47
2022-12-14T18:51:36.180Z,55.78
2022-12-14T18:54:03.269Z,53.67
2022-12-14T18:56:29.708Z,50.60
2022-12-14T18:58:56.290Z,53.75
2022-12-14T19:01:24.677Z,53.83
2022-12-14T19:03:51.734Z,54.08
2022-12-14T19:09:09.965Z,54.55
2022-12-14T19:11:41.971Z,55.75
2022-12-14T19:14:08.872Z,53.80
2022-12-14T19:16:35.366Z,52.05
2022-12-14T19:19:01.858Z,48.65
2022-12-14T19:21:31.801Z,57.45
2022-12-14T19:23:59.743Z,48.37
2022-12-14T19:26:28.086Z,50.03
2022-12-14T19:28:54.478Z,54.45
2022-12-14T19:31:20.942Z,55.17
2022-12-14T19:33:47.402Z,49.55
2022-12-14T19:36:13.795Z,57.90
2022-12-14T19:38:40.227Z,54.95
2022-12-14T19:41:10.722Z,54.75
2022-12-14T19:43:37.416Z,54.60
2022-12-14T19:46:08.905Z,56.00
2022-12-14T19:48:35.387Z,56.47
2022-12-14T19:51:10.641Z,51.28
2022-12-14T19:53:37.761Z,56.15
2022-12-14T19:56:04.616Z,58.53
2022-12-14T19:58:31.022Z,57.38
2022-12-14T20:00:58.370Z,53.92
2022-12-14T20:03:24.907Z,52.33
2022-12-14T20:05:55.813Z,52.33
2022-12-14T20:08:23.427Z,56.10
2022-12-14T20:10:52.632Z,52.03
2022-12-14T20:13:19.792Z,58.50
2022-12-14T20:15:50.715Z,58.20
2022-12-14T20:20:43.936Z,55.97
2022-12-14T20:23:17.262Z,59.22
2022-12-14T20:25:43.682Z,60.78
2022-12-14T20:28:14.315Z,58.72
2022-12-14T20:30:45.480Z,56.20
2022-12-14T20:33:12.646Z,53.67
2022-12-14T20:35:39.139Z,54.33
2022-12-14T20:38:05.533Z,54.38
2022-12-14T20:40:38.007Z,59.53
2022-12-14T20:43:05.151Z,57.08
2022-12-14T20:45:31.557Z,61.20
2022-12-14T20:47:57.946Z,54.97
2022-12-14T20:50:24.354Z,56.15
2022-12-14T20:52:50.734Z,55.72
2022-12-14T20:55:17.263Z,52.80
2022-12-14T20:57:43.658Z,64.10
2022-12-14T21:00:10.535Z,62.80
2022-12-14T21:02:37.085Z,63.10
2022-12-14T21:05:03.985Z,59.45
2022-12-14T21:07:31.704Z,61.92
2022-12-14T21:09:58.449Z,62.50
2022-12-14T21:12:25.709Z,59.97
2022-12-14T21:14:54.260Z,60.70
2022-12-14T21:17:23.213Z,64.07
2022-12-14T21:19:50.354Z,64.63
2022-12-14T21:22:26.025Z,65.63
2022-12-14T21:25:08.288Z,67.97
2022-12-14T21:27:38.240Z,59.38
2022-12-14T21:30:07.202Z,70.15
2022-12-14T21:32:35.547Z,62.75
2022-12-14T21:35:01.996Z,58.88
2022-12-14T21:37:28.378Z,61.60
2022-12-14T21:39:55.741Z,64.72
2022-12-14T21:42:23.633Z,67.72
2022-12-14T21:44:51.939Z,59.03
2022-12-14T21:47:24.670Z,62.28
2022-12-14T21:49:51.299Z,64.82
2022-12-14T21:52:20.393Z,67.75
2022-12-14T21:54:46.779Z,67.20
2022-12-14T21:57:37.265Z,62.75
2022-12-14T22:00:05.500Z,47.65
2022-12-14T22:02:39.608Z,64.07
2022-12-14T22:05:06.631Z,66.35
2022-12-14T22:07:34.202Z,65.93
2022-12-14T22:10:00.692Z,62.38
2022-12-14T22:12:27.328Z,67.03
2022-12-14T22:14:53.739Z,60.75
2022-12-14T22:17:20.154Z,65.38
2022-12-14T22:19:46.617Z,66.97
2022-12-14T22:22:15.290Z,62.25
2022-12-14T22:24:41.951Z,66.25
2022-12-14T22:27:10.003Z,72.43
2022-12-14T22:29:36.397Z,61.40
2022-12-14T22:32:02.917Z,62.20
2022-12-14T22:34:29.411Z,70.40
2022-12-14T22:36:56.013Z,72.38
2022-12-14T22:39:22.636Z,66.22
2022-12-14T22:41:49.488Z,61.65
2022-12-14T22:44:15.883Z,67.35
2022-12-14T22:46:42.344Z,65.78
2022-12-14T22:49:14.265Z,61.17
2022-12-14T22:51:41.094Z,60.42
2022-12-14T22:54:07.489Z,54.72
2022-12-14T22:56:48.131Z,66.40
2022-12-14T22:59:23.338Z,62.15
2022-12-14T23:01:50.550Z,62.10
2022-12-14T23:04:17.461Z,64.25
2022-12-14T23:06:44.867Z,63.55
2022-12-14T23:09:30.603Z,62.28
2022-12-14T23:12:21.262Z,63.75
2022-12-14T23:15:06.770Z,60.42
2022-12-14T23:17:51.592Z,59.13
2022-12-14T23:20:36.862Z,59.92
2022-12-14T23:23:26.069Z,68.35
2022-12-14T23:26:12.016Z,62.47
2022-12-14T23:28:57.591Z,63.30
2022-12-14T23:31:42.970Z,67.63
2022-12-14T23:34:28.460Z,66.35
2022-12-14T23:37:18.216Z,60.58
2022-12-14T23:40:05.632Z,74.68
2022-12-14T23:42:50.566Z,68.28
2022-12-14T23:45:35.568Z,66.88
2022-12-14T23:48:20.761Z,67.32
2022-12-14T23:51:06.062Z,69.07
2022-12-14T23:53:51.211Z,63.30
2022-12-14T23:56:36.291Z,67.03
2022-12-14T23:59:24.864Z,63.08
